Time;durP1;ratioP1;P1;durP2;ratioP2;P2;SDS_P1;SDS_P2;PMS_P1;PMS_P2;Temp;Humidity;BMP_temperature;BMP_pressure;BME280_temperature;BME280_humidity;BME280_pressure;Samples;Min_cycle;Max_cycle;Signal;HPM_P1;HPM_P2
2022/05/30 00:04:21;;;;;;;2.10;1.07;;;18.40;58.80;;;;;;5036309;28;20201;-5
2022/05/30 00:06:47;;;;;;;1.03;0.73;;;18.30;58.80;;;;;;5032182;28;20170;-5
2022/05/30 00:09:15;;;;;;;1.70;0.90;;;18.40;58.80;;;;;;5018583;28;20461;-5
2022/05/30 00:11:41;;;;;;;1.20;1.00;;;18.30;58.80;;;;;;5037498;28;20241;-6
2022/05/30 00:14:08;;;;;;;1.17;0.80;;;18.30;58.80;;;;;;5015709;28;20178;-5
2022/05/30 00:16:40;;;;;;;2.43;0.80;;;18.30;58.80;;;;;;5014270;28;20182;-6
2022/05/30 00:19:05;;;;;;;1.57;0.80;;;18.30;58.80;;;;;;5032369;28;20203;-6
2022/05/30 00:21:31;;;;;;;2.20;1.10;;;18.30;58.80;;;;;;5037215;28;20178;-5
2022/05/30 00:23:56;;;;;;;1.63;0.90;;;18.30;58.80;;;;;;5036643;28;20608;-5
2022/05/30 00:26:42;;;;;;;1.77;0.93;;;18.30;58.70;;;;;;5015720;28;20170;-5
2022/05/30 00:29:07;;;;;;;1.20;0.80;;;18.30;58.70;;;;;;5036735;28;20269;-6
2022/05/30 00:31:35;;;;;;;1.00;0.80;;;18.30;58.70;;;;;;5034812;28;20278;-5
2022/05/30 00:37:25;;;;;;;0.80;0.53;;;18.30;58.70;;;;;;5036750;28;20166;-6
2022/05/30 00:39:57;;;;;;;1.67;0.90;;;18.30;58.70;;;;;;5037122;28;20193;-4
2022/05/30 00:42:24;;;;;;;2.40;0.80;;;18.20;58.70;;;;;;5032070;28;20177;-5
2022/05/30 00:44:53;;;;;;;0.97;0.87;;;18.30;58.70;;;;;;5015970;28;20171;-4
2022/05/30 00:47:20;;;;;;;1.67;0.90;;;18.20;58.60;;;;;;5017866;28;20178;-5
2022/05/30 00:49:48;;;;;;;1.37;0.93;;;18.20;58.60;;;;;;5018403;28;20460;-5
2022/05/30 00:52:27;;;;;;;1.20;0.80;;;18.20;58.60;;;;;;5016536;28;20196;-4
2022/05/30 00:55:26;;;;;;;1.87;0.83;;;18.20;58.60;;;;;;5018273;28;20169;-6
2022/05/30 01:07:20;;;;;;;0.90;0.70;;;18.20;58.70;;;;;;5033706;28;20153;-6
2022/05/30 01:09:46;;;;;;;1.03;0.80;;;18.20;58.70;;;;;;5017273;28;20271;-4
2022/05/30 01:12:13;;;;;;;1.20;0.80;;;18.20;58.70;;;;;;5016544;28;20205;-4
2022/05/30 01:14:45;;;;;;;0.77;0.67;;;18.20;58.60;;;;;;5019073;28;20169;-5
2022/05/30 01:17:23;;;;;;;0.80;0.80;;;18.20;58.60;;;;;;5015999;28;20175;-6
2022/05/30 01:19:55;;;;;;;0.73;0.70;;;18.20;58.60;;;;;;5035954;28;20259;-4
2022/05/30 01:22:50;;;;;;;0.43;0.43;;;18.20;58.60;;;;;;5017422;28;20244;-5
2022/05/30 01:25:31;;;;;;;2.20;0.90;;;18.20;58.60;;;;;;5005625;28;20738;-4
2022/05/30 01:28:17;;;;;;;0.77;0.60;;;18.10;58.60;;;;;;5022554;28;20615;-5
2022/05/30 01:30:42;;;;;;;1.13;0.80;;;18.10;58.60;;;;;;5039501;28;20683;-4
2022/05/30 01:33:09;;;;;;;0.83;0.77;;;18.10;58.60;;;;;;5022041;28;20285;-4
2022/05/30 01:35:42;;;;;;;0.80;0.80;;;18.10;58.60;;;;;;5020157;28;20177;-5
2022/05/30 01:41:43;;;;;;;0.60;0.60;;;18.10;58.60;;;;;;5040113;28;20202;-4
2022/05/30 01:44:16;;;;;;;0.50;0.50;;;18.10;58.60;;;;;;5040529;28;20558;-4
2022/05/30 01:46:42;;;;;;;1.03;0.80;;;18.10;58.60;;;;;;5020874;28;20166;-4
2022/05/30 01:55:52;;;;;;;1.10;0.67;;;18.10;58.60;;;;;;5037481;28;20185;-5
2022/05/30 02:08:24;;;;;;;1.23;0.90;;;18.00;58.50;;;;;;5038441;28;20514;-4
2022/05/30 02:10:50;;;;;;;1.40;0.70;;;18.00;58.50;;;;;;5037765;28;20177;-4
2022/05/30 02:13:15;;;;;;;1.00;0.70;;;18.00;58.50;;;;;;5022315;28;20625;-5
2022/05/30 02:18:32;;;;;;;0.93;0.80;;;18.00;58.50;;;;;;5031589;28;20300;-4
2022/05/30 02:20:58;;;;;;;1.03;0.80;;;18.00;58.50;;;;;;5016353;28;20170;-5
2022/05/30 02:23:25;;;;;;;1.57;0.90;;;18.00;58.50;;;;;;5033609;28;20180;-4
2022/05/30 02:26:24;;;;;;;1.23;0.83;;;18.00;58.60;;;;;;5012144;28;20178;-6
2022/05/30 02:29:05;;;;;;;0.77;0.70;;;18.00;58.50;;;;;;4992842;28;20263;-6
2022/05/30 02:31:43;;;;;;;1.07;0.70;;;18.00;58.60;;;;;;5019410;28;20180;-4
2022/05/30 02:40:26;;;;;;;0.87;0.77;;;18.00;58.60;;;;;;5035944;28;20213;-4
2022/05/30 02:43:15;;;;;;;1.50;0.90;;;18.00;58.60;;;;;;5033487;28;20194;-4
2022/05/30 02:45:41;;;;;;;0.67;0.67;;;18.00;58.60;;;;;;5036669;28;20722;-6
2022/05/30 02:48:08;;;;;;;1.10;0.80;;;18.00;58.50;;;;;;5036905;28;20169;-5
2022/05/30 02:50:44;;;;;;;1.87;0.77;;;18.00;58.60;;;;;;5035208;28;20230;-4
2022/05/30 02:53:11;;;;;;;1.03;0.80;;;18.00;58.60;;;;;;5033767;28;20185;-4
2022/05/30 02:55:37;;;;;;;1.20;0.77;;;18.00;58.60;;;;;;5018928;28;20260;-4
2022/05/30 02:58:06;;;;;;;0.90;0.77;;;18.00;58.60;;;;;;5035729;28;20831;-4
2022/05/30 03:00:32;;;;;;;0.90;0.60;;;17.90;58.60;;;;;;5029681;28;20176;-4
2022/05/30 03:02:58;;;;;;;0.90;0.63;;;17.90;58.60;;;;;;5037709;28;20194;-4
2022/05/30 03:05:24;;;;;;;0.83;0.70;;;17.90;58.60;;;;;;5034956;28;20161;-6
2022/05/30 03:07:50;;;;;;;0.77;0.70;;;17.90;58.60;;;;;;5033273;28;20199;-6
2022/05/30 03:10:19;;;;;;;0.87;0.70;;;17.90;58.60;;;;;;5016934;28;20288;-5
2022/05/30 03:12:51;;;;;;;1.33;0.63;;;17.90;58.60;;;;;;5017158;28;20210;-6
2022/05/30 03:15:17;;;;;;;1.30;0.90;;;17.90;58.60;;;;;;5018687;28;20232;-4
2022/05/30 03:17:55;;;;;;;1.13;0.70;;;17.90;58.60;;;;;;5031841;28;20572;-4
2022/05/30 03:20:25;;;;;;;0.60;0.60;;;17.90;58.60;;;;;;5033941;28;20566;-4
2022/05/30 03:22:53;;;;;;;1.00;0.70;;;17.90;58.60;;;;;;5019134;28;20177;-4
2022/05/30 03:25:28;;;;;;;1.07;0.70;;;17.90;58.60;;;;;;5033452;28;20175;-5
2022/05/30 03:27:55;;;;;;;1.07;0.90;;;17.90;58.60;;;;;;5034414;28;20190;-5
2022/05/30 03:30:24;;;;;;;0.90;0.70;;;17.90;58.70;;;;;;5009116;28;20209;-4
2022/05/30 03:32:51;;;;;;;0.67;0.63;;;17.90;58.70;;;;;;5001341;28;20187;-4
2022/05/30 03:35:17;;;;;;;1.10;0.70;;;17.90;58.70;;;;;;5036933;28;20217;-5
2022/05/30 03:37:44;;;;;;;0.73;0.70;;;17.90;58.80;;;;;;5029525;28;20205;-5
2022/05/30 03:40:14;;;;;;;0.67;0.67;;;17.90;58.80;;;;;;5027950;28;20401;-5
2022/05/30 03:42:41;;;;;;;0.60;0.60;;;17.90;58.80;;;;;;5026045;28;20422;-5
2022/05/30 03:45:13;;;;;;;0.67;0.60;;;17.90;58.70;;;;;;5018348;28;20177;-4
2022/05/30 03:47:48;;;;;;;0.80;0.63;;;17.80;58.70;;;;;;5016650;28;20182;-4
2022/05/30 03:50:18;;;;;;;1.03;0.67;;;17.80;58.70;;;;;;5032601;28;20200;-5
2022/05/30 03:52:44;;;;;;;1.40;0.60;;;17.80;58.70;;;;;;5030230;28;20188;-4
2022/05/30 03:55:17;;;;;;;1.53;0.90;;;17.80;58.70;;;;;;5033453;28;20209;-5
2022/05/30 03:57:43;;;;;;;0.60;0.60;;;17.80;58.70;;;;;;5032796;28;20218;-4
2022/05/30 04:00:24;;;;;;;0.87;0.70;;;17.80;58.70;;;;;;5014566;28;20230;-5
2022/05/30 04:03:01;;;;;;;0.87;0.70;;;17.80;58.70;;;;;;5025862;28;20212;-4
2022/05/30 04:05:27;;;;;;;1.60;0.70;;;17.80;58.70;;;;;;5035454;28;20177;-5
2022/05/30 04:07:53;;;;;;;1.37;0.90;;;17.80;58.70;;;;;;5036535;28;20581;-4
2022/05/30 04:10:20;;;;;;;1.17;0.70;;;17.80;58.70;;;;;;5030440;28;20195;-5
2022/05/30 04:12:46;;;;;;;1.20;0.60;;;17.80;58.60;;;;;;5019993;28;20249;-5
2022/05/30 04:15:19;;;;;;;1.40;0.80;;;17.80;59.00;;;;;;5008997;28;20178;-6
2022/05/30 04:17:45;;;;;;;0.80;0.70;;;17.80;58.60;;;;;;5017598;28;20214;-4
2022/05/30 04:20:17;;;;;;;1.40;0.80;;;17.80;58.70;;;;;;5034270;28;20177;-6
2022/05/30 04:22:48;;;;;;;0.90;0.83;;;17.80;58.60;;;;;;5036963;28;20178;-4
2022/05/30 04:25:13;;;;;;;0.87;0.70;;;17.80;58.60;;;;;;5036303;28;20294;-5
2022/05/30 04:31:15;;;;;;;0.60;0.60;;;17.80;58.60;;;;;;5033434;28;20577;-6
2022/05/30 04:37:03;;;;;;;0.77;0.63;;;17.80;58.50;;;;;;5030663;28;20178;-6
2022/05/30 04:39:31;;;;;;;0.97;0.60;;;17.80;58.50;;;;;;5036648;28;20205;-4
2022/05/30 04:41:57;;;;;;;1.10;0.70;;;17.80;58.50;;;;;;5019134;28;20654;-5
2022/05/30 04:44:22;;;;;;;1.07;0.77;;;17.80;58.50;;;;;;5018935;28;20632;-6
2022/05/30 04:46:55;;;;;;;1.73;0.70;;;17.80;58.50;;;;;;5036539;28;20487;-5
2022/05/30 04:49:23;;;;;;;1.03;0.80;;;17.80;58.40;;;;;;5036873;28;20162;-4
2022/05/30 04:51:50;;;;;;;2.33;0.70;;;17.80;58.40;;;;;;5015926;28;20675;-4
2022/05/30 04:54:16;;;;;;;1.07;0.80;;;17.80;58.40;;;;;;5018055;28;20206;-4
2022/05/30 04:56:42;;;;;;;0.70;0.70;;;17.80;58.40;;;;;;5036736;28;20332;-6
2022/05/30 04:59:09;;;;;;;0.70;0.70;;;17.80;58.40;;;;;;5019926;28;20204;-5
2022/05/30 05:01:36;;;;;;;1.53;0.70;;;17.80;58.40;;;;;;5023683;28;20195;-4
2022/05/30 05:04:04;;;;;;;1.10;0.80;;;17.80;58.40;;;;;;5023119;28;20189;-4
2022/05/30 05:06:29;;;;;;;0.73;0.60;;;17.80;58.30;;;;;;5022965;28;20181;-4
2022/05/30 05:09:03;;;;;;;1.13;0.73;;;17.80;58.30;;;;;;5039659;28;20492;-4
2022/05/30 05:11:31;;;;;;;1.30;0.87;;;17.80;58.30;;;;;;5039790;28;20159;-4
2022/05/30 05:13:57;;;;;;;1.20;0.70;;;17.80;58.30;;;;;;5039917;28;20179;-5
2022/05/30 05:16:28;;;;;;;0.90;0.70;;;17.80;58.30;;;;;;5039205;28;20265;-5
2022/05/30 05:18:55;;;;;;;0.90;0.60;;;17.80;58.20;;;;;;5038545;28;20230;-4
2022/05/30 05:21:28;;;;;;;1.20;0.50;;;17.80;58.60;;;;;;5021773;28;20266;-5
2022/05/30 05:23:54;;;;;;;0.87;0.80;;;17.80;58.20;;;;;;5039130;28;20187;-5
2022/05/30 05:26:21;;;;;;;1.33;0.87;;;17.80;58.20;;;;;;5022057;28;20226;-4
2022/05/30 05:28:47;;;;;;;1.27;0.70;;;17.90;58.30;;;;;;5038486;28;20164;-4
2022/05/30 05:31:34;;;;;;;1.03;0.80;;;17.80;58.20;;;;;;5037971;28;20247;-5
2022/05/30 05:34:02;;;;;;;0.60;0.60;;;17.90;58.20;;;;;;5021088;28;20174;-5
2022/05/30 05:36:30;;;;;;;1.20;0.80;;;17.90;58.20;;;;;;5038283;28;20272;-6
2022/05/30 05:38:57;;;;;;;1.13;0.77;;;17.90;58.30;;;;;;5037563;28;20284;-4
2022/05/30 05:41:23;;;;;;;2.40;0.80;;;18.00;58.30;;;;;;5038601;28;20612;-5
2022/05/30 05:43:49;;;;;;;1.47;0.80;;;18.00;58.30;;;;;;5037468;28;20183;-4
2022/05/30 05:46:17;;;;;;;1.73;0.80;;;18.00;58.20;;;;;;5021397;28;20242;-6
2022/05/30 05:58:51;;;;;;;1.70;0.93;;;18.00;58.20;;;;;;5037255;28;20226;-5
2022/05/30 06:01:25;;;;;;;1.80;0.73;;;18.10;58.30;;;;;;5020340;28;20611;-4
2022/05/30 06:03:53;;;;;;;1.10;0.70;;;18.10;58.30;;;;;;5037294;28;20170;-5
2022/05/30 06:06:18;;;;;;;1.43;1.10;;;18.10;58.30;;;;;;5036016;28;20189;-4
2022/05/30 06:08:44;;;;;;;1.10;0.90;;;18.10;58.30;;;;;;5037153;28;20277;-6
2022/05/30 06:11:11;;;;;;;1.80;0.80;;;18.10;58.30;;;;;;5020160;28;20237;-6
2022/05/30 06:13:44;;;;;;;1.13;0.73;;;18.10;58.70;;;;;;5038732;28;20268;-4
2022/05/30 06:16:13;;;;;;;2.07;0.83;;;18.10;58.50;;;;;;5038581;28;20533;-5
2022/05/30 06:18:38;;;;;;;1.40;0.73;;;18.10;58.70;;;;;;5037992;28;20214;-4
2022/05/30 06:21:05;;;;;;;4.80;0.90;;;18.20;58.80;;;;;;5037923;28;20591;-4
2022/05/30 06:23:32;;;;;;;1.80;0.90;;;18.20;59.20;;;;;;5038190;28;20666;-5
2022/05/30 06:26:01;;;;;;;1.97;1.00;;;18.20;59.00;;;;;;5018864;28;20698;-4
2022/05/30 06:28:28;;;;;;;1.30;0.97;;;18.20;59.10;;;;;;5037909;28;20464;-4
2022/05/30 06:30:54;;;;;;;2.20;0.97;;;18.20;59.20;;;;;;5020561;28;20192;-4
2022/05/30 06:33:20;;;;;;;1.67;0.80;;;18.30;59.20;;;;;;5037685;28;20652;-4
2022/05/30 06:35:46;;;;;;;2.00;0.90;;;18.30;59.20;;;;;;5037492;28;20181;-4
2022/05/30 06:38:13;;;;;;;3.03;1.10;;;18.30;59.10;;;;;;5020086;28;20238;-4
2022/05/30 06:40:39;;;;;;;2.03;1.07;;;18.30;59.00;;;;;;5036731;28;20181;-5
2022/05/30 06:43:10;;;;;;;2.00;0.97;;;18.40;59.10;;;;;;5020094;28;20199;-4
2022/05/30 06:45:36;;;;;;;2.17;1.00;;;18.40;59.20;;;;;;5037929;28;20178;-5
2022/05/30 06:48:02;;;;;;;2.37;1.20;;;18.40;59.10;;;;;;5036929;28;20190;-5
2022/05/30 06:50:27;;;;;;;3.43;1.10;;;18.50;59.40;;;;;;5035631;28;20237;-5
2022/05/30 06:52:53;;;;;;;2.23;1.00;;;18.50;59.60;;;;;;5037252;28;20181;-5
2022/05/30 06:55:19;;;;;;;1.93;1.07;;;18.50;59.70;;;;;;5020075;28;20178;-6
2022/05/30 07:00:30;;;;;;;2.20;1.10;;;18.50;59.70;;;;;;5037226;28;20188;-4
2022/05/30 07:02:59;;;;;;;2.20;1.13;;;18.60;59.70;;;;;;5037180;28;20544;-6
2022/05/30 07:05:25;;;;;;;2.17;1.27;;;18.60;59.50;;;;;;5037662;28;20159;-5
2022/05/30 07:07:55;;;;;;;2.60;1.20;;;18.60;59.50;;;;;;5035199;28;20688;-5
2022/05/30 07:10:22;;;;;;;3.13;1.10;;;18.70;59.50;;;;;;5035776;28;20638;-4
2022/05/30 07:12:48;;;;;;;4.00;1.10;;;18.80;59.10;;;;;;5018133;28;20761;-4
2022/05/30 07:15:14;;;;;;;3.60;1.10;;;18.80;58.70;;;;;;5019494;28;20179;-5
2022/05/30 07:17:40;;;;;;;4.20;1.30;;;18.90;58.50;;;;;;5019086;28;20592;-4
2022/05/30 07:20:06;;;;;;;4.27;1.47;;;19.00;58.20;;;;;;5036955;28;20180;-6
2022/05/30 07:22:31;;;;;;;5.13;1.30;;;19.00;58.10;;;;;;5035738;28;20321;-6
2022/05/30 07:24:57;;;;;;;2.53;1.33;;;19.10;57.80;;;;;;5036074;28;20275;-5
2022/05/30 07:27:23;;;;;;;2.73;1.33;;;19.10;57.80;;;;;;5016963;28;20584;-4
2022/05/30 07:29:49;;;;;;;2.40;1.10;;;19.10;57.70;;;;;;5036005;28;20198;-4
2022/05/30 07:32:14;;;;;;;2.77;1.30;;;19.10;57.60;;;;;;5035158;28;20188;-6
2022/05/30 07:34:40;;;;;;;2.20;1.20;;;19.10;57.70;;;;;;5036048;28;20707;-4
2022/05/30 07:37:06;;;;;;;3.67;1.50;;;19.10;57.70;;;;;;5018620;28;20650;-5
2022/05/30 07:39:36;;;;;;;2.47;1.30;;;19.10;57.60;;;;;;5034907;28;20196;-4
2022/05/30 07:42:03;;;;;;;2.23;1.20;;;19.10;57.60;;;;;;5017739;28;20321;-5
2022/05/30 07:44:29;;;;;;;4.30;1.67;;;19.10;57.60;;;;;;5018193;28;20560;-5
2022/05/30 07:46:54;;;;;;;4.03;1.37;;;19.10;57.50;;;;;;5035827;28;20159;-4
2022/05/30 07:49:20;;;;;;;2.53;1.50;;;19.10;57.40;;;;;;5018310;28;20179;-5
2022/05/30 07:51:46;;;;;;;2.37;1.30;;;19.10;57.30;;;;;;5035102;28;20176;-4
2022/05/30 07:54:18;;;;;;;4.63;1.30;;;19.10;57.20;;;;;;5113369;27;20619;-5
2022/05/30 07:56:45;;;;;;;2.47;1.23;;;19.20;57.10;;;;;;5094906;28;20182;-4
2022/05/30 07:59:10;;;;;;;3.17;1.20;;;19.20;57.10;;;;;;5113415;28;20613;-4
2022/05/30 08:01:41;;;;;;;2.67;1.30;;;19.20;56.90;;;;;;5111878;28;20166;-5
2022/05/30 08:04:12;;;;;;;3.43;1.27;;;19.20;56.80;;;;;;5112494;28;20188;-6
2022/05/30 08:06:38;;;;;;;2.63;1.20;;;19.20;56.80;;;;;;5095066;28;20185;-4
2022/05/30 08:09:05;;;;;;;2.80;1.47;;;19.20;56.80;;;;;;5111973;28;20174;-4
2022/05/30 08:11:31;;;;;;;2.37;1.17;;;19.30;56.90;;;;;;5112806;28;20166;-4
2022/05/30 08:13:57;;;;;;;2.60;1.30;;;19.30;57.30;;;;;;5111875;28;20206;-7
2022/05/30 08:16:25;;;;;;;2.43;1.30;;;19.30;57.00;;;;;;5110985;28;20209;-6
2022/05/30 08:18:51;;;;;;;3.20;1.40;;;19.30;57.00;;;;;;5111744;28;20162;-5
2022/05/30 08:21:23;;;;;;;2.97;1.50;;;19.30;57.00;;;;;;5109327;28;20171;-6
2022/05/30 08:23:49;;;;;;;2.27;1.20;;;19.40;57.00;;;;;;5110927;28;20170;-6
2022/05/30 08:26:14;;;;;;;4.63;1.57;;;19.30;57.00;;;;;;5110168;28;20166;-4
2022/05/30 08:28:41;;;;;;;3.50;1.50;;;19.40;56.90;;;;;;5111856;28;20185;-4
2022/05/30 08:31:09;;;;;;;3.07;1.50;;;19.50;56.80;;;;;;5111635;28;20661;-5
2022/05/30 08:33:35;;;;;;;4.80;1.50;;;19.50;56.70;;;;;;5110500;28;20461;-5
2022/05/30 08:36:05;;;;;;;4.40;1.73;;;19.50;56.70;;;;;;5092910;28;20185;-7
2022/05/30 08:38:33;;;;;;;3.33;1.43;;;19.50;56.70;;;;;;5111025;28;20166;-4
2022/05/30 08:43:49;;;;;;;3.53;1.40;;;19.50;56.70;;;;;;5111802;28;20177;-5
2022/05/30 08:46:57;;;;;;;2.47;1.37;;;19.50;56.70;;;;;;5111990;28;20174;-4
2022/05/30 08:49:42;;;;;;;4.10;1.40;;;19.50;56.70;;;;;;5111487;28;20142;-5
2022/05/30 08:52:45;;;;;;;3.80;1.30;;;19.50;56.60;;;;;;5109374;28;20174;-6
2022/05/30 08:55:51;;;;;;;3.23;1.43;;;19.50;56.60;;;;;;5108112;28;20166;-5
2022/05/30 08:58:23;;;;;;;3.70;1.30;;;19.50;56.50;;;;;;5093688;28;20693;-5
2022/05/30 09:00:50;;;;;;;4.50;1.73;;;19.50;56.50;;;;;;5110408;28;20173;-4
2022/05/30 09:04:06;;;;;;;3.03;1.37;;;19.50;56.40;;;;;;5093759;28;20263;-4
2022/05/30 09:06:35;;;;;;;4.67;1.63;;;19.60;56.40;;;;;;5095288;28;20189;-6
2022/05/30 09:09:22;;;;;;;3.33;1.80;;;19.60;56.30;;;;;;5097100;28;20183;-5
2022/05/30 09:11:55;;;;;;;7.43;1.60;;;19.70;56.20;;;;;;5097593;28;20779;-5
2022/05/30 09:14:40;;;;;;;5.97;1.77;;;19.70;56.00;;;;;;5079878;28;20185;-6
2022/05/30 09:17:16;;;;;;;3.93;1.70;;;19.80;55.80;;;;;;5079197;28;20269;-5
2022/05/30 09:19:43;;;;;;;4.13;1.83;;;19.90;55.70;;;;;;5097574;28;20588;-5
2022/05/30 09:22:09;;;;;;;4.37;1.83;;;19.90;55.60;;;;;;5080120;28;20178;-4
2022/05/30 09:24:36;;;;;;;4.40;1.83;;;20.00;55.40;;;;;;5097116;28;20178;-6
2022/05/30 09:27:03;;;;;;;7.07;2.27;;;20.10;55.20;;;;;;5097632;28;20181;-6
2022/05/30 09:29:49;;;;;;;6.53;2.17;;;20.20;55.00;;;;;;5097172;28;20259;-5
2022/05/30 09:32:35;;;;;;;6.27;1.70;;;20.30;54.60;;;;;;5078569;28;20195;-5
2022/05/30 09:35:23;;;;;;;4.67;1.80;;;20.50;54.20;;;;;;5078601;28;20251;-5
2022/05/30 09:38:07;;;;;;;3.83;1.80;;;20.70;53.80;;;;;;5096543;28;20655;-6
2022/05/30 09:40:46;;;;;;;4.13;1.93;;;20.70;53.50;;;;;;5096587;28;20265;-5
2022/05/30 09:43:26;;;;;;;3.30;1.67;;;20.70;53.40;;;;;;5097035;28;20155;-5
2022/05/30 09:45:53;;;;;;;6.07;2.03;;;20.80;53.30;;;;;;5097214;28;20234;-5
2022/05/30 09:48:19;;;;;;;4.57;1.87;;;20.80;53.20;;;;;;5097392;28;20186;-6
2022/05/30 09:50:58;;;;;;;2.77;1.50;;;20.80;53.20;;;;;;5097163;28;20178;-5
2022/05/30 09:53:41;;;;;;;5.00;1.80;;;20.70;53.30;;;;;;5092485;28;20205;-4
2022/05/30 09:56:07;;;;;;;3.80;1.67;;;20.70;53.30;;;;;;5095892;28;20194;-6
2022/05/30 09:59:00;;;;;;;3.60;1.53;;;20.60;53.40;;;;;;5096127;28;20204;-6
2022/05/30 10:01:28;;;;;;;3.93;1.60;;;20.60;53.50;;;;;;5096302;28;20166;-4
2022/05/30 10:03:59;;;;;;;3.73;1.70;;;20.50;53.50;;;;;;5078567;28;20171;-5
2022/05/30 10:06:27;;;;;;;3.57;1.83;;;20.50;53.60;;;;;;5078903;28;20195;-5
2022/05/30 10:09:15;;;;;;;5.10;1.80;;;20.50;53.70;;;;;;5096265;28;20571;-6
2022/05/30 10:11:42;;;;;;;3.43;1.67;;;20.50;53.80;;;;;;5095903;28;20195;-5
2022/05/30 10:14:24;;;;;;;3.03;1.60;;;20.50;53.90;;;;;;5096284;28;20209;-5
2022/05/30 10:16:54;;;;;;;3.03;1.60;;;20.50;54.00;;;;;;5076055;28;20185;-5
2022/05/30 10:19:28;;;;;;;3.30;1.60;;;20.50;54.00;;;;;;5078879;28;20182;-4
2022/05/30 10:28:21;;;;;;;4.03;1.80;;;20.50;54.00;;;;;;5043203;28;20188;-6
2022/05/30 10:30:56;;;;;;;3.53;1.93;;;20.50;53.90;;;;;;5094793;28;20219;-5
2022/05/30 10:33:40;;;;;;;2.03;1.50;;;20.50;53.90;;;;;;5095625;28;20259;-5
2022/05/30 10:36:24;;;;;;;3.87;1.70;;;20.50;53.80;;;;;;5078154;28;20239;-8
2022/05/30 10:39:04;;;;;;;3.00;1.60;;;20.50;53.80;;;;;;5095664;28;20166;-7
2022/05/30 10:42:02;;;;;;;3.77;1.90;;;20.50;53.80;;;;;;5077987;28;20159;-7
2022/05/30 10:44:40;;;;;;;4.40;1.63;;;20.60;53.70;;;;;;5056629;28;20178;-7
2022/05/30 10:47:15;;;;;;;2.73;1.60;;;20.60;53.70;;;;;;5095035;28;20209;-9
2022/05/30 10:49:50;;;;;;;3.50;1.70;;;20.50;53.60;;;;;;5095940;28;20564;-8
2022/05/30 10:52:47;;;;;;;3.70;1.97;;;20.60;53.50;;;;;;5077084;28;20787;-7
2022/05/30 10:55:29;;;;;;;4.17;1.90;;;20.60;53.50;;;;;;5077333;28;20174;-7
2022/05/30 10:58:06;;;;;;;3.70;1.80;;;20.60;53.40;;;;;;5094579;28;20434;-5
2022/05/30 11:00:42;;;;;;;3.10;1.67;;;20.60;53.30;;;;;;5094199;28;20262;-5
2022/05/30 11:03:23;;;;;;;3.47;1.80;;;20.60;53.30;;;;;;5094805;28;20577;-6
2022/05/30 11:06:09;;;;;;;2.83;1.70;;;20.60;53.20;;;;;;5094960;28;20167;-6
2022/05/30 11:08:51;;;;;;;4.60;1.70;;;20.60;53.20;;;;;;5093654;28;20183;-4
2022/05/30 11:11:46;;;;;;;3.57;1.77;;;20.60;53.20;;;;;;5094714;28;20167;-5
2022/05/30 11:14:20;;;;;;;3.10;1.50;;;20.60;53.10;;;;;;5076444;28;20207;-4
2022/05/30 11:17:01;;;;;;;3.93;1.73;;;20.60;53.00;;;;;;5093766;28;20174;-6
2022/05/30 11:19:57;;;;;;;3.97;1.90;;;20.70;53.00;;;;;;5094077;28;20179;-5
2022/05/30 11:22:34;;;;;;;2.80;1.77;;;20.70;53.00;;;;;;5095384;28;20170;-4
2022/05/30 11:25:00;;;;;;;3.97;1.80;;;20.70;53.00;;;;;;5094383;28;20473;-6
2022/05/30 11:27:39;;;;;;;2.60;1.50;;;20.70;53.00;;;;;;5094309;28;20182;-5
2022/05/30 11:30:35;;;;;;;3.67;1.73;;;20.70;53.00;;;;;;5093936;28;20166;-5
2022/05/30 11:33:25;;;;;;;4.40;2.20;;;20.70;53.00;;;;;;5076671;28;20216;-5
2022/05/30 11:36:29;;;;;;;3.07;2.00;;;20.70;53.00;;;;;;5094102;28;20240;-6
2022/05/30 11:39:32;;;;;;;6.37;2.13;;;20.70;53.10;;;;;;5094197;28;20196;-6
2022/05/30 11:42:36;;;;;;;3.43;1.83;;;20.80;53.10;;;;;;5047340;28;20204;-6
2022/05/30 11:45:18;;;;;;;2.57;1.90;;;20.80;53.10;;;;;;5074489;28;20178;-5
2022/05/30 11:47:55;;;;;;;3.23;1.80;;;20.80;53.10;;;;;;5076265;28;20231;-5
2022/05/30 11:50:35;;;;;;;3.83;2.17;;;20.80;53.10;;;;;;5089216;28;20194;-5
2022/05/30 11:53:21;;;;;;;4.07;1.93;;;20.80;53.10;;;;;;5094475;28;20263;-4
2022/05/30 11:56:15;;;;;;;5.07;1.80;;;20.80;53.10;;;;;;5076010;28;20170;-5
2022/05/30 11:59:02;;;;;;;3.50;2.00;;;20.90;53.20;;;;;;5077513;28;20167;-6
2022/05/30 12:01:31;;;;;;;5.30;2.07;;;20.90;53.20;;;;;;5094447;28;20178;-6
2022/05/30 12:04:25;;;;;;;3.43;2.00;;;20.90;53.20;;;;;;5094191;28;20176;-5
2022/05/30 12:07:28;;;;;;;3.33;2.00;;;20.90;53.10;;;;;;5093050;28;20178;-5
2022/05/30 12:10:05;;;;;;;3.37;1.90;;;20.90;53.10;;;;;;5077409;28;20173;-5
2022/05/30 12:13:00;;;;;;;4.50;1.93;;;20.90;53.10;;;;;;5076878;28;20209;-4
2022/05/30 12:15:48;;;;;;;4.43;1.93;;;20.90;53.10;;;;;;5095004;28;20159;-6
2022/05/30 12:24:24;;;;;;;4.93;2.00;;;21.00;53.10;;;;;;5094711;28;20186;-5
2022/05/30 12:26:56;;;;;;;2.90;1.80;;;21.00;53.10;;;;;;5076482;28;20178;-5
2022/05/30 12:29:37;;;;;;;3.13;1.70;;;21.00;53.10;;;;;;5094672;28;20196;-4
2022/05/30 12:32:33;;;;;;;3.33;2.00;;;21.00;53.10;;;;;;5093973;28;20174;-6
2022/05/30 12:35:10;;;;;;;3.73;2.13;;;21.00;53.10;;;;;;5076680;28;20175;-5
2022/05/30 12:37:45;;;;;;;4.77;2.20;;;21.00;53.10;;;;;;5093902;28;20578;-5
2022/05/30 12:40:26;;;;;;;3.83;1.90;;;21.00;53.10;;;;;;5095625;28;20551;-6
2022/05/30 12:43:29;;;;;;;4.00;2.13;;;21.00;53.00;;;;;;5095949;28;20175;-5
2022/05/30 12:45:54;;;;;;;4.00;2.10;;;21.00;53.00;;;;;;5080134;28;20178;-5
2022/05/30 12:48:32;;;;;;;3.00;2.20;;;21.10;53.00;;;;;;5097608;28;20185;-5
2022/05/30 12:51:19;;;;;;;3.93;1.70;;;21.00;53.00;;;;;;5098035;28;20169;-6
2022/05/30 12:54:03;;;;;;;4.50;1.93;;;21.10;53.00;;;;;;5096346;28;20305;-5
2022/05/30 12:56:38;;;;;;;3.40;2.00;;;21.10;53.00;;;;;;5079696;28;20167;-5
2022/05/30 12:59:03;;;;;;;3.10;1.90;;;21.10;53.00;;;;;;5097647;28;20198;-6
2022/05/30 13:01:43;;;;;;;4.47;2.13;;;21.10;53.00;;;;;;5079134;28;20199;-5
2022/05/30 13:04:30;;;;;;;3.77;2.00;;;21.00;52.90;;;;;;5097603;28;20174;-6
2022/05/30 13:06:58;;;;;;;3.07;2.00;;;21.10;53.00;;;;;;5097758;28;20151;-5
2022/05/30 13:09:33;;;;;;;4.27;2.30;;;21.10;53.00;;;;;;5097014;28;20175;-5
2022/05/30 13:12:20;;;;;;;3.40;1.87;;;21.10;53.00;;;;;;5079614;28;20205;-5
2022/05/30 13:15:01;;;;;;;3.53;1.73;;;21.10;52.90;;;;;;5096867;28;20186;-6
2022/05/30 13:17:51;;;;;;;2.73;1.83;;;21.10;53.00;;;;;;5097565;28;20206;-5
2022/05/30 13:20:21;;;;;;;4.27;2.00;;;21.10;52.90;;;;;;5097364;28;20712;-5
2022/05/30 13:22:51;;;;;;;3.77;1.80;;;21.10;52.90;;;;;;5097176;28;20170;-6
2022/05/30 13:25:47;;;;;;;3.47;1.80;;;21.10;52.90;;;;;;5096578;28;20679;-5
2022/05/30 13:28:26;;;;;;;2.93;1.87;;;21.10;52.90;;;;;;5078587;28;20198;-6
2022/05/30 13:30:54;;;;;;;2.00;1.53;;;21.10;52.90;;;;;;5096714;28;20573;-5
2022/05/30 13:33:28;;;;;;;2.87;1.70;;;21.10;52.90;;;;;;5079178;28;20209;-5
2022/05/30 13:35:59;;;;;;;3.93;1.80;;;21.10;52.80;;;;;;5096355;28;20695;-5
2022/05/30 13:38:30;;;;;;;4.07;1.80;;;21.10;52.80;;;;;;5079119;28;20734;-5
2022/05/30 13:40:56;;;;;;;3.70;1.97;;;21.10;52.80;;;;;;5090194;28;20236;-6
2022/05/30 13:43:32;;;;;;;3.93;1.80;;;21.20;52.80;;;;;;5070700;28;20182;-5
2022/05/30 13:45:57;;;;;;;3.83;1.73;;;21.20;52.80;;;;;;5088175;28;20178;-6
2022/05/30 13:48:24;;;;;;;2.40;1.40;;;21.20;52.80;;;;;;5068911;28;20170;-4
2022/05/30 13:50:59;;;;;;;3.03;1.60;;;21.20;52.70;;;;;;5086051;28;20359;-4
2022/05/30 13:53:37;;;;;;;2.43;1.70;;;21.20;52.70;;;;;;5069683;28;20449;-6
2022/05/30 13:56:06;;;;;;;2.87;2.03;;;21.20;52.60;;;;;;5064265;28;20177;-6
2022/05/30 13:58:37;;;;;;;2.10;1.77;;;21.20;53.00;;;;;;5068805;28;20171;-6
2022/05/30 14:01:06;;;;;;;2.77;1.80;;;21.30;52.50;;;;;;5087323;28;20251;-6
2022/05/30 14:03:33;;;;;;;3.37;1.90;;;21.30;52.40;;;;;;5087312;28;20623;-5
2022/05/30 14:05:59;;;;;;;2.17;1.60;;;21.30;52.40;;;;;;5069818;28;20179;-5
2022/05/30 14:08:34;;;;;;;2.43;1.60;;;21.30;52.30;;;;;;5086777;28;20428;-4
2022/05/30 14:11:07;;;;;;;3.40;1.80;;;21.30;52.30;;;;;;5085156;28;20536;-5
2022/05/30 14:13:36;;;;;;;2.83;1.70;;;21.30;52.30;;;;;;5082964;28;20252;-6
2022/05/30 14:16:05;;;;;;;3.47;1.90;;;21.30;52.30;;;;;;5065292;28;20191;-6
2022/05/30 14:18:44;;;;;;;2.60;1.60;;;21.30;52.20;;;;;;5081949;28;20175;-5
2022/05/30 14:21:12;;;;;;;2.13;1.60;;;21.30;52.30;;;;;;5092772;28;20203;-7
2022/05/30 14:23:41;;;;;;;2.63;1.70;;;21.30;52.30;;;;;;5088532;28;20197;-4
2022/05/30 14:26:09;;;;;;;2.20;1.57;;;21.30;52.30;;;;;;5088636;28;20774;-6
2022/05/30 14:28:49;;;;;;;3.03;1.60;;;21.30;52.30;;;;;;5092924;28;20203;-5
2022/05/30 14:31:40;;;;;;;2.20;1.70;;;21.30;52.30;;;;;;5086466;28;20552;-5
2022/05/30 14:34:07;;;;;;;3.77;1.90;;;21.30;52.30;;;;;;5091865;28;20632;-6
2022/05/30 14:36:43;;;;;;;2.73;1.70;;;21.30;52.20;;;;;;5093540;28;20232;-5
2022/05/30 14:39:14;;;;;;;2.33;1.43;;;21.30;52.20;;;;;;5092974;28;20239;-4
2022/05/30 14:41:50;;;;;;;2.63;1.80;;;21.30;52.20;;;;;;5076401;28;20205;-5
2022/05/30 14:44:19;;;;;;;3.63;1.60;;;21.30;52.20;;;;;;5091892;28;20163;-5
2022/05/30 14:46:45;;;;;;;2.73;1.37;;;21.40;52.30;;;;;;5093524;28;20163;-5
2022/05/30 14:49:18;;;;;;;2.80;1.43;;;21.40;52.30;;;;;;5092448;28;20174;-6